Hugo, OK

5:31 AM CDT on July 11, 2014 (GMT -0500)
Stamper Municipal (KHHW) Elev 571 ft | 34.03 °N, 95.54 °W | Change Station

Current weather conditions updated 16 minutes ago

Clear
Clear
76 °F
Feels Like 76 °F
N
5
Wind Variable Wind from East

Today is forecast to be Warmer than yesterday.

Today
High -- | Low -- °F
--% Chance of Precip.
Yesterday
High -- | Low -- °F
Precip. -- in
6:19 AM 8:35 PM
Waxing Gibbous, 98% visible
Pressure 30.06 in
Visibility 10.0 miles
Clouds Clear
Dew Point 72 °F
Humidity 89%
Rainfall 0.00 in
Snow Depth Not available.
UV 0 out of 12
Pollen 4.60 out of 12
Air Quality Not available.
Flu Activity Local Activity
METAR KHHW 111015Z AUTO 08004KT 10SM CLR 24/22 A3006 RMK AO2 T02420222

More Conditions Fewer Conditions

Pressure 30.06 in
Visibility 10.0 miles
Clouds Clear
Dew Point 72 °F
Humidity 89%
Rainfall 0.00 in
Snow Depth Not available.
UV 0 out of 12
Pollen 4.60 out of 12
Air Quality Not available.
Flu Activity Local Activity
METAR KHHW 111015Z AUTO 08004KT 10SM CLR 24/22 A3006 RMK AO2 T02420222

More Conditions Fewer Conditions

Nowcast | as of 5:02 am CDT on July 11, 2014

At 5 am...National Weather Service Doppler radars continued to show a few isolated showers across eastern Oklahoma and western Arkansas. Most of the activity was north and east of a Okemah to Poteau line. The showers were slowly drifting to the south. Through 6 am...isolated showers will continue across eastern Oklahoma and western Arkansas. Rainfall rates will generally be below one-tenth of an inch per hour.

×

10-Day Weather Forecast

Almanac

Astronomy

Jul. 11, 2014 Rise Set
Actual Time 6:19 AM CDT 8:35 PM CDT
Civil Twilight 5:50 AM CDT 9:04 PM CDT
Nautical Twilight 5:15 AM CDT 9:39 PM CDT
Astronomical Twilight 4:37 AM CDT 10:17 PM CDT
Moon 7:49 PM CDT 5:30 AM CDT
Length of Visible Light 15h 13m
Length of Day
14h 15m
Tomorrow will be 0m 55s shorter.
Waxing Gibbous, 98% of the Moon is Illuminated
Today
Waxing Gibbous
Jul 12
Full
Jul 18
Last Quarter
Jul 26
New
Aug 3
First Quarter

Today's Extremes

State Highs State Lows

Community

WunderPhotos

Upload Photos

1,732,407 photos uploaded!

WunderBlogs® & News

Nearby

Snow Depth

Station Depth Elevation
No new snow has been reported.

Earthquake Activity

City Distance Mag. Time & Date
No recent earthquake activity has been reported nearby.
Minimum magnitude displayed is 2.5.

Coastal Water Temperatures

Place Temperature
No Stations Reporting

Nearby Weather Stations

Station Location Temp. Heat Index Dew Point Humidity Wind Precip. Elev Updated Type
HADS HUGO LAKE RESERVOIR NEAR SAWYER OK, Sawyer, OK 76 °F 76 °F 73 °F 88% SSE  at  6 mph 0.00 in / hr 465 ft 4:00 AM CDT MADIS

Show More Stations Show Fewer Stations